Terminal Aerodrome Forecast
Issued by NWS

Home | Current Version | Previous Version | Text Only | Print | Product List | Glossary On
Versions: 1 2 3 4 5 6 7 8 9 10 11 12 13
673
FTUS45 KABQ 290535
TAFGUP
TAF
KGUP 290535Z 2906/3006 36007KT P6SM SCT120
     FM290800 VRB03KT P6SM FEW120
     FM291800 22010KT P6SM FEW120
     FM292100 23012G21KT P6SM SCT150=

USA.gov is the U.S. government's official web portal to all federal, state and local government web resources and services.